Time;durP1;ratioP1;P1;durP2;ratioP2;P2;SDS_P1;SDS_P2;PMS_P1;PMS_P2;Temp;Humidity;BMP_temperature;BMP_pressure;BME280_temperature;BME280_humidity;BME280_pressure;Samples;Min_cycle;Max_cycle;Signal;HPM_P1;HPM_P2
2022/05/08 00:02:15;;;;;;;4.10;3.40;;;;;;;;;;4917560;29;20170;-80
2022/05/08 00:04:41;;;;;;;3.67;2.93;;;;;;;;;;4900823;29;20190;-80
2022/05/08 00:07:07;;;;;;;4.00;3.00;;;;;;;;;;4900931;29;20214;-79
2022/05/08 00:09:33;;;;;;;3.60;3.30;;;;;;;;;;4900523;29;20201;-79
2022/05/08 00:11:59;;;;;;;3.33;3.03;;;;;;;;;;4900758;29;20182;-79
2022/05/08 00:14:25;;;;;;;3.47;3.17;;;;;;;;;;4901141;29;20194;-79
2022/05/08 00:16:51;;;;;;;3.40;3.10;;;;;;;;;;4901077;29;20270;-79
2022/05/08 00:19:17;;;;;;;3.73;3.30;;;;;;;;;;4900508;29;20230;-79
2022/05/08 00:21:44;;;;;;;3.77;3.20;;;;;;;;;;4900547;29;20702;-79
2022/05/08 00:24:10;;;;;;;4.13;3.30;;;;;;;;;;4900537;29;20273;-79
2022/05/08 00:26:36;;;;;;;3.90;3.10;;;;;;;;;;4900195;29;20244;-79
2022/05/08 00:29:02;;;;;;;3.40;3.10;;;;;;;;;;4900567;29;20214;-79
2022/05/08 00:31:29;;;;;;;4.20;3.50;;;;;;;;;;4900324;29;20183;-79
2022/05/08 00:33:55;;;;;;;4.10;3.63;;;;;;;;;;4900465;29;20187;-80
2022/05/08 00:36:21;;;;;;;4.13;3.60;;;;;;;;;;4900507;29;20285;-79
2022/05/08 00:38:47;;;;;;;3.80;3.37;;;;;;;;;;4900197;29;20199;-80
2022/05/08 00:41:13;;;;;;;3.53;3.23;;;;;;;;;;4870594;29;20187;-79
2022/05/08 00:43:40;;;;;;;4.07;3.40;;;;;;;;;;4869702;29;20191;-79
2022/05/08 00:46:07;;;;;;;4.13;3.73;;;;;;;;;;4884988;29;20202;-79
2022/05/08 00:48:34;;;;;;;4.50;3.27;;;;;;;;;;4869580;29;20203;-80
2022/05/08 00:51:01;;;;;;;3.57;3.27;;;;;;;;;;4870088;29;20207;-79
2022/05/08 00:53:40;;;;;;;4.10;3.33;;;;;;;;;;4884307;29;20185;-80
2022/05/08 00:56:10;;;;;;;3.90;3.60;;;;;;;;;;4869591;29;20183;-79
2022/05/08 00:58:37;;;;;;;4.00;3.60;;;;;;;;;;4869491;29;20745;-80
2022/05/08 01:01:03;;;;;;;4.00;3.60;;;;;;;;;;4884989;29;20554;-80
2022/05/08 01:03:30;;;;;;;3.60;3.30;;;;;;;;;;4884563;29;20242;-80
2022/05/08 01:05:57;;;;;;;3.93;3.53;;;;;;;;;;4885120;29;20206;-80
2022/05/08 01:08:24;;;;;;;5.70;3.70;;;;;;;;;;4885043;29;20203;-80
2022/05/08 01:10:50;;;;;;;4.17;3.67;;;;;;;;;;4884700;29;20191;-80
2022/05/08 01:13:16;;;;;;;4.63;3.33;;;;;;;;;;4869138;29;20198;-80
2022/05/08 01:15:43;;;;;;;3.80;3.40;;;;;;;;;;4884698;29;20198;-80
2022/05/08 01:18:11;;;;;;;3.60;3.30;;;;;;;;;;4884826;29;20206;-80
2022/05/08 01:20:38;;;;;;;4.50;4.10;;;;;;;;;;4869549;29;20187;-80
2022/05/08 01:23:04;;;;;;;4.67;3.87;;;;;;;;;;4884309;29;20183;-80
2022/05/08 01:25:30;;;;;;;6.97;3.60;;;;;;;;;;4868668;29;20210;-80
2022/05/08 01:27:56;;;;;;;3.70;3.40;;;;;;;;;;4884112;29;20175;-80
2022/05/08 01:30:23;;;;;;;5.33;3.70;;;;;;;;;;4868877;29;20179;-80
2022/05/08 01:32:49;;;;;;;3.40;3.10;;;;;;;;;;4868363;29;20191;-80
2022/05/08 01:35:15;;;;;;;4.37;3.97;;;;;;;;;;4868855;29;20191;-80
2022/05/08 01:37:41;;;;;;;5.00;3.57;;;;;;;;;;4884160;29;20179;-79
2022/05/08 01:40:07;;;;;;;4.30;3.47;;;;;;;;;;4869020;29;20215;-80
2022/05/08 01:42:33;;;;;;;4.80;3.60;;;;;;;;;;4868555;29;20211;-79
2022/05/08 01:44:59;;;;;;;4.37;3.80;;;;;;;;;;4884090;29;20550;-80
2022/05/08 01:50:24;;;;;;;4.23;3.43;;;;;;;;;;4877474;29;20187;-80
2022/05/08 01:52:50;;;;;;;5.40;3.77;;;;;;;;;;4868866;29;20231;-80
2022/05/08 01:55:16;;;;;;;5.43;3.83;;;;;;;;;;4883981;29;20235;-80
2022/05/08 01:57:42;;;;;;;4.43;4.00;;;;;;;;;;4883774;29;20190;-80
2022/05/08 02:00:09;;;;;;;4.67;4.20;;;;;;;;;;4868399;29;20183;-80
2022/05/08 02:02:35;;;;;;;4.30;3.90;;;;;;;;;;4883558;29;20183;-80
2022/05/08 02:05:02;;;;;;;6.40;4.20;;;;;;;;;;4868064;29;20190;-79
2022/05/08 02:07:28;;;;;;;4.97;4.40;;;;;;;;;;4883555;29;20612;-80
2022/05/08 02:09:54;;;;;;;4.90;4.50;;;;;;;;;;4883507;29;20753;-79
2022/05/08 02:12:20;;;;;;;5.27;4.27;;;;;;;;;;4883602;29;20657;-80
2022/05/08 02:14:46;;;;;;;6.10;4.03;;;;;;;;;;4868214;29;20187;-80
2022/05/08 02:17:13;;;;;;;4.77;4.27;;;;;;;;;;4883570;29;20191;-80
2022/05/08 02:19:39;;;;;;;6.33;4.50;;;;;;;;;;4883715;29;20202;-80
2022/05/08 02:22:05;;;;;;;4.90;4.40;;;;;;;;;;4867633;29;20202;-80
2022/05/08 02:24:31;;;;;;;5.73;4.40;;;;;;;;;;4867904;29;20277;-80
2022/05/08 02:26:57;;;;;;;4.83;4.33;;;;;;;;;;4868067;29;20206;-80
2022/05/08 02:29:23;;;;;;;7.43;4.10;;;;;;;;;;4867977;29;20226;-80
2022/05/08 02:31:49;;;;;;;6.07;4.33;;;;;;;;;;4867901;29;20187;-79
2022/05/08 02:34:15;;;;;;;4.50;4.10;;;;;;;;;;4882850;29;20191;-80
2022/05/08 02:36:41;;;;;;;4.70;4.30;;;;;;;;;;4867729;29;20191;-80
2022/05/08 02:39:07;;;;;;;5.00;4.43;;;;;;;;;;4867645;29;20214;-80
2022/05/08 02:41:33;;;;;;;4.27;3.80;;;;;;;;;;4867830;29;20206;-80
2022/05/08 02:43:59;;;;;;;5.30;4.13;;;;;;;;;;4867806;29;20187;-80
2022/05/08 02:46:25;;;;;;;4.63;4.17;;;;;;;;;;4882877;29;20218;-80
2022/05/08 02:48:51;;;;;;;4.60;4.20;;;;;;;;;;4867732;29;20262;-80
2022/05/08 02:51:17;;;;;;;4.67;4.17;;;;;;;;;;4882928;29;20597;-80
2022/05/08 02:53:43;;;;;;;4.53;4.00;;;;;;;;;;4882746;29;20570;-80
2022/05/08 02:58:54;;;;;;;5.27;3.97;;;;;;;;;;4899968;29;20226;-80
2022/05/08 03:01:20;;;;;;;5.27;4.23;;;;;;;;;;4867070;29;20190;-80
2022/05/08 03:03:46;;;;;;;6.37;4.40;;;;;;;;;;4867317;29;20190;-80
2022/05/08 03:06:13;;;;;;;4.20;3.80;;;;;;;;;;4867536;29;20210;-80
2022/05/08 03:08:40;;;;;;;4.70;4.20;;;;;;;;;;4867411;29;20274;-80
2022/05/08 03:13:51;;;;;;;4.43;4.00;;;;;;;;;;4899361;29;20651;-80
2022/05/08 03:16:17;;;;;;;4.67;4.13;;;;;;;;;;4867518;29;20184;-80
2022/05/08 03:18:45;;;;;;;5.57;3.93;;;;;;;;;;4882764;29;20206;-80
2022/05/08 03:21:11;;;;;;;4.20;3.80;;;;;;;;;;4882409;29;20186;-80
2022/05/08 03:23:38;;;;;;;5.57;4.30;;;;;;;;;;4882359;29;20187;-80
2022/05/08 03:26:04;;;;;;;5.87;4.30;;;;;;;;;;4882286;29;20249;-80
2022/05/08 03:28:31;;;;;;;5.27;4.40;;;;;;;;;;4898898;29;20214;-80
2022/05/08 03:30:59;;;;;;;5.47;4.10;;;;;;;;;;4899401;29;20171;-80
2022/05/08 03:33:25;;;;;;;4.50;3.93;;;;;;;;;;4866692;29;20195;-79
2022/05/08 03:35:51;;;;;;;4.90;4.40;;;;;;;;;;4882451;29;20183;-79
2022/05/08 03:38:20;;;;;;;4.93;4.43;;;;;;;;;;4866874;29;20233;-80
2022/05/08 03:40:46;;;;;;;4.87;4.33;;;;;;;;;;4866737;29;20183;-79
2022/05/08 03:43:12;;;;;;;4.90;4.30;;;;;;;;;;4866109;29;20191;-80
2022/05/08 03:45:38;;;;;;;4.90;4.40;;;;;;;;;;4866375;29;20210;-80
2022/05/08 03:48:05;;;;;;;5.47;4.57;;;;;;;;;;4866798;29;20294;-79
2022/05/08 03:50:31;;;;;;;6.63;4.73;;;;;;;;;;4882075;29;20179;-80
2022/05/08 03:52:58;;;;;;;5.33;4.83;;;;;;;;;;4866222;29;20187;-79
2022/05/08 03:55:25;;;;;;;4.93;4.40;;;;;;;;;;4866756;29;20316;-80
2022/05/08 03:57:51;;;;;;;5.00;4.47;;;;;;;;;;4881699;29;20194;-80
2022/05/08 04:00:17;;;;;;;6.17;5.40;;;;;;;;;;4866760;29;20187;-80
2022/05/08 04:02:43;;;;;;;6.60;5.03;;;;;;;;;;4866085;29;20197;-80
2022/05/08 04:05:10;;;;;;;5.70;5.10;;;;;;;;;;4881695;29;20178;-80
2022/05/08 04:07:37;;;;;;;5.37;4.87;;;;;;;;;;4866651;29;20187;-79
2022/05/08 04:10:03;;;;;;;5.10;4.60;;;;;;;;;;4881390;29;20613;-79
2022/05/08 04:12:29;;;;;;;5.10;4.60;;;;;;;;;;4898178;29;20171;-80
2022/05/08 04:14:55;;;;;;;5.77;4.90;;;;;;;;;;4870189;29;20194;-80
2022/05/08 04:17:21;;;;;;;5.53;4.97;;;;;;;;;;4885369;29;20726;-80
2022/05/08 04:19:47;;;;;;;5.63;5.03;;;;;;;;;;4885675;29;20206;-80
2022/05/08 04:24:58;;;;;;;6.73;6.00;;;;;;;;;;4902148;29;20230;-80
2022/05/08 04:27:24;;;;;;;6.00;5.40;;;;;;;;;;4885351;29;20186;-80
2022/05/08 04:29:50;;;;;;;6.23;5.60;;;;;;;;;;4885534;29;20218;-80
2022/05/08 04:32:17;;;;;;;6.50;5.53;;;;;;;;;;4885389;29;20175;-79
2022/05/08 04:34:43;;;;;;;7.27;5.83;;;;;;;;;;4885350;29;20180;-79
2022/05/08 04:37:09;;;;;;;7.33;5.67;;;;;;;;;;4869713;29;20250;-79
2022/05/08 04:39:35;;;;;;;6.70;6.10;;;;;;;;;;4869658;29;20207;-80
2022/05/08 04:42:02;;;;;;;7.90;6.40;;;;;;;;;;4884728;29;20187;-80
2022/05/08 04:44:28;;;;;;;7.23;5.80;;;;;;;;;;4884613;29;20209;-80
2022/05/08 04:46:54;;;;;;;7.97;6.20;;;;;;;;;;4884875;29;20206;-80
2022/05/08 04:49:20;;;;;;;6.93;5.97;;;;;;;;;;4884679;29;20203;-79
2022/05/08 04:51:46;;;;;;;7.40;6.60;;;;;;;;;;4869542;29;20188;-79
2022/05/08 04:54:12;;;;;;;7.80;6.50;;;;;;;;;;4901550;29;20619;-79
2022/05/08 04:56:39;;;;;;;7.50;6.70;;;;;;;;;;4869433;29;20246;-79
2022/05/08 04:59:05;;;;;;;7.83;7.03;;;;;;;;;;4869960;29;20210;-77
2022/05/08 05:01:31;;;;;;;7.83;6.87;;;;;;;;;;4869365;29;20556;-79
2022/05/08 05:03:57;;;;;;;9.57;8.00;;;;;;;;;;4868869;29;20190;-79
2022/05/08 05:06:23;;;;;;;8.50;7.60;;;;;;;;;;4884281;29;20289;-79
2022/05/08 05:08:49;;;;;;;51.53;30.60;;;;;;;;;;4884584;29;20228;-78
2022/05/08 05:11:15;;;;;;;38.03;23.17;;;;;;;;;;4869331;29;20304;-77
2022/05/08 05:13:41;;;;;;;11.50;10.30;;;;;;;;;;4884198;29;20187;-78
2022/05/08 05:16:07;;;;;;;10.47;8.87;;;;;;;;;;4884549;29;20670;-79
2022/05/08 05:18:34;;;;;;;11.60;8.67;;;;;;;;;;4869330;29;20211;-79
2022/05/08 05:21:00;;;;;;;12.83;9.20;;;;;;;;;;4883937;29;20698;-78
2022/05/08 05:23:26;;;;;;;10.47;9.37;;;;;;;;;;4883507;29;20235;-78
2022/05/08 05:25:52;;;;;;;12.70;9.67;;;;;;;;;;4884242;29;20202;-80
2022/05/08 05:28:18;;;;;;;11.33;9.80;;;;;;;;;;4868506;29;20218;-78
2022/05/08 05:30:44;;;;;;;10.87;9.73;;;;;;;;;;4884310;29;20246;-78
2022/05/08 05:33:15;;;;;;;9.73;8.73;;;;;;;;;;4884363;29;20186;-77
2022/05/08 05:35:41;;;;;;;10.60;8.33;;;;;;;;;;4900874;29;20163;-77
2022/05/08 05:38:07;;;;;;;8.03;7.23;;;;;;;;;;4900514;29;20199;-78
2022/05/08 05:40:34;;;;;;;13.40;10.03;;;;;;;;;;4868895;29;20187;-77
2022/05/08 05:43:00;;;;;;;11.73;9.63;;;;;;;;;;4883285;29;20179;-77
2022/05/08 05:45:26;;;;;;;13.43;10.73;;;;;;;;;;4870101;29;20211;-78
2022/05/08 05:47:57;;;;;;;16.27;12.23;;;;;;;;;;4870933;29;20183;-77
2022/05/08 05:50:25;;;;;;;14.77;11.93;;;;;;;;;;4869783;29;20186;-80
2022/05/08 05:52:51;;;;;;;16.30;12.77;;;;;;;;;;4884085;29;20232;-79
2022/05/08 05:55:18;;;;;;;14.40;12.33;;;;;;;;;;4884830;29;20242;-80
2022/05/08 05:57:44;;;;;;;15.77;12.73;;;;;;;;;;4884325;29;20243;-79
2022/05/08 06:00:14;;;;;;;14.70;12.73;;;;;;;;;;4885991;29;20178;-82
2022/05/08 06:02:42;;;;;;;16.37;13.17;;;;;;;;;;4870793;29;20187;-79
2022/05/08 06:05:08;;;;;;;16.10;14.20;;;;;;;;;;4885289;29;20638;-80
2022/05/08 06:07:35;;;;;;;16.60;13.37;;;;;;;;;;4884182;29;20182;-80
2022/05/08 06:10:02;;;;;;;16.90;13.30;;;;;;;;;;4886355;29;20223;-78
2022/05/08 06:12:28;;;;;;;15.37;12.47;;;;;;;;;;4889156;29;20210;-81
2022/05/08 06:14:54;;;;;;;14.87;12.60;;;;;;;;;;4873583;29;20190;-83
2022/05/08 06:17:20;;;;;;;16.17;12.60;;;;;;;;;;4888007;29;20214;-79
2022/05/08 06:19:46;;;;;;;14.20;12.00;;;;;;;;;;4872406;29;20214;-79
2022/05/08 06:22:12;;;;;;;16.90;12.93;;;;;;;;;;4872286;29;20190;-79
2022/05/08 06:24:38;;;;;;;14.40;11.93;;;;;;;;;;4873390;29;20191;-79
2022/05/08 06:27:07;;;;;;;14.60;11.90;;;;;;;;;;4872926;29;20693;-78
2022/05/08 06:29:34;;;;;;;14.10;12.37;;;;;;;;;;4890867;29;20211;-78
2022/05/08 06:32:00;;;;;;;14.20;11.37;;;;;;;;;;4888733;29;20179;-78
2022/05/08 06:34:26;;;;;;;12.83;11.33;;;;;;;;;;4888784;29;20248;-78
2022/05/08 06:36:52;;;;;;;16.10;11.87;;;;;;;;;;4889601;29;20179;-79
2022/05/08 06:39:18;;;;;;;13.83;12.13;;;;;;;;;;4876485;29;20210;-78
2022/05/08 06:41:45;;;;;;;12.97;11.00;;;;;;;;;;4890433;29;20214;-79
2022/05/08 06:44:11;;;;;;;13.40;11.30;;;;;;;;;;4888083;29;20186;-81
2022/05/08 06:46:37;;;;;;;14.23;11.80;;;;;;;;;;4872832;29;20211;-78
2022/05/08 06:49:05;;;;;;;58.30;19.47;;;;;;;;;;4868950;29;20655;-77
2022/05/08 06:51:31;;;;;;;20.33;12.90;;;;;;;;;;4898617;29;20186;-77
2022/05/08 06:54:03;;;;;;;433.63;116.30;;;;;;;;;;4880314;29;20229;-77
2022/05/08 06:56:34;;;;;;;1019.07;282.10;;;;;;;;;;4895045;29;20737;-77
2022/05/08 07:01:45;;;;;;;24.30;12.10;;;;;;;;;;4917486;29;20182;-77
2022/05/08 07:04:12;;;;;;;35.23;13.70;;;;;;;;;;4881728;29;20190;-78
2022/05/08 07:06:39;;;;;;;10.17;9.07;;;;;;;;;;4898741;29;20588;-78
2022/05/08 07:09:05;;;;;;;10.27;8.90;;;;;;;;;;4896829;29;20334;-77
2022/05/08 07:11:32;;;;;;;10.07;7.60;;;;;;;;;;4894827;29;20183;-77
2022/05/08 07:13:58;;;;;;;10.87;8.83;;;;;;;;;;4897191;29;20195;-77
2022/05/08 07:16:25;;;;;;;9.53;7.77;;;;;;;;;;4898192;29;20175;-77
2022/05/08 07:18:51;;;;;;;11.67;7.57;;;;;;;;;;4904427;29;20214;-76
2022/05/08 07:21:19;;;;;;;11.10;8.43;;;;;;;;;;4900103;29;20234;-77
2022/05/08 07:23:45;;;;;;;10.77;8.70;;;;;;;;;;4899614;29;20186;-76
2022/05/08 07:26:11;;;;;;;9.33;8.10;;;;;;;;;;4899843;29;20213;-77
2022/05/08 07:28:37;;;;;;;11.60;9.10;;;;;;;;;;4886852;29;20222;-80
2022/05/08 07:31:03;;;;;;;11.83;9.30;;;;;;;;;;4902318;29;20189;-78
2022/05/08 07:33:34;;;;;;;12.90;9.57;;;;;;;;;;4887091;29;20273;-78
2022/05/08 07:36:21;;;;;;;9.70;8.73;;;;;;;;;;4902324;29;20170;-79
2022/05/08 07:38:47;;;;;;;13.23;9.07;;;;;;;;;;4905387;29;20703;-78
2022/05/08 07:41:17;;;;;;;9.30;8.40;;;;;;;;;;4902032;29;20182;-78
2022/05/08 07:43:47;;;;;;;8.93;8.03;;;;;;;;;;4901201;29;20182;-78
2022/05/08 07:46:16;;;;;;;10.03;8.17;;;;;;;;;;4921310;29;20225;-78
2022/05/08 07:48:42;;;;;;;8.93;8.03;;;;;;;;;;4890120;29;20198;-79
2022/05/08 07:51:08;;;;;;;8.80;7.90;;;;;;;;;;4909321;29;20186;-78
2022/05/08 07:53:34;;;;;;;10.00;8.73;;;;;;;;;;4896960;29;20179;-79
2022/05/08 07:56:00;;;;;;;26.97;17.93;;;;;;;;;;4903758;29;20245;-79
2022/05/08 07:58:33;;;;;;;12.60;10.13;;;;;;;;;;4885956;29;20221;-78
2022/05/08 08:01:00;;;;;;;17.77;10.60;;;;;;;;;;4902735;29;20182;-78
2022/05/08 08:03:28;;;;;;;10.07;8.50;;;;;;;;;;4903784;29;20182;-79
2022/05/08 08:05:54;;;;;;;13.97;9.43;;;;;;;;;;4886169;29;20297;-79
2022/05/08 08:08:25;;;;;;;11.80;9.97;;;;;;;;;;4900850;29;20330;-79
2022/05/08 08:10:52;;;;;;;11.00;8.93;;;;;;;;;;4900526;29;20178;-80
2022/05/08 08:13:19;;;;;;;13.67;8.53;;;;;;;;;;4901908;29;20178;-79
2022/05/08 08:15:46;;;;;;;9.97;7.63;;;;;;;;;;4900693;29;20384;-79
2022/05/08 08:18:12;;;;;;;9.37;7.60;;;;;;;;;;4884558;29;20218;-80
2022/05/08 08:20:39;;;;;;;10.63;8.40;;;;;;;;;;4884533;29;20187;-80
2022/05/08 08:23:05;;;;;;;8.23;7.33;;;;;;;;;;4900286;29;20182;-79
2022/05/08 08:25:31;;;;;;;10.07;7.60;;;;;;;;;;4884619;29;20213;-80
2022/05/08 08:27:57;;;;;;;9.07;6.90;;;;;;;;;;4899890;29;20214;-80
2022/05/08 08:30:23;;;;;;;8.17;7.37;;;;;;;;;;4885056;29;20355;-79
2022/05/08 08:32:49;;;;;;;8.50;7.37;;;;;;;;;;4900354;29;20300;-79
2022/05/08 08:35:15;;;;;;;8.47;7.57;;;;;;;;;;4900409;29;20202;-79
2022/05/08 08:37:41;;;;;;;9.23;7.50;;;;;;;;;;4900372;29;20263;-80
2022/05/08 08:40:07;;;;;;;10.00;7.90;;;;;;;;;;4900166;29;20697;-79
2022/05/08 08:42:33;;;;;;;9.07;7.53;;;;;;;;;;4893117;29;20193;-79
2022/05/08 08:47:53;;;;;;;8.53;6.90;;;;;;;;;;4899331;29;20226;-79
2022/05/08 08:50:23;;;;;;;7.40;6.60;;;;;;;;;;4866925;29;20247;-79
2022/05/08 08:52:50;;;;;;;8.63;7.23;;;;;;;;;;4866877;29;20274;-79
2022/05/08 08:55:16;;;;;;;7.77;6.87;;;;;;;;;;4867000;29;20348;-80
2022/05/08 08:57:45;;;;;;;6.87;6.17;;;;;;;;;;4882493;29;20175;-80
2022/05/08 09:00:12;;;;;;;7.30;6.53;;;;;;;;;;4887564;29;20179;-80
2022/05/08 09:02:38;;;;;;;7.03;6.33;;;;;;;;;;4901141;29;20175;-79
2022/05/08 09:05:05;;;;;;;6.70;6.10;;;;;;;;;;4901075;29;20179;-80
2022/05/08 09:07:34;;;;;;;7.87;6.03;;;;;;;;;;4901228;29;20219;-80
2022/05/08 09:10:06;;;;;;;6.70;5.60;;;;;;;;;;4901025;29;20243;-80
2022/05/08 09:12:32;;;;;;;6.53;5.70;;;;;;;;;;4900424;29;20647;-80
2022/05/08 09:14:58;;;;;;;6.57;5.87;;;;;;;;;;4900868;29;20607;-80
2022/05/08 09:17:24;;;;;;;7.90;6.20;;;;;;;;;;4901216;29;20187;-80
2022/05/08 09:19:50;;;;;;;7.37;6.13;;;;;;;;;;4900372;29;20207;-80
2022/05/08 09:22:18;;;;;;;6.20;5.60;;;;;;;;;;4900931;29;20191;-80
2022/05/08 09:24:55;;;;;;;6.67;5.80;;;;;;;;;;4900635;29;20183;-80
2022/05/08 09:27:21;;;;;;;6.17;5.57;;;;;;;;;;4885421;29;20203;-80
2022/05/08 09:29:47;;;;;;;6.20;5.60;;;;;;;;;;4884366;29;20211;-80
2022/05/08 09:32:35;;;;;;;6.47;5.70;;;;;;;;;;4883965;29;20180;-80
2022/05/08 09:35:02;;;;;;;6.73;6.03;;;;;;;;;;4899874;29;20175;-80
2022/05/08 09:37:28;;;;;;;6.77;5.80;;;;;;;;;;4918323;29;20185;-80
2022/05/08 09:40:14;;;;;;;6.50;5.80;;;;;;;;;;4921597;29;20201;-80
2022/05/08 09:42:41;;;;;;;8.17;5.67;;;;;;;;;;4920519;29;20185;-80
2022/05/08 09:45:08;;;;;;;6.45;5.82;;;;;;;;;;4905685;29;20645;-80
2022/05/08 09:47:41;;;;;;;6.10;5.50;;;;;;;;;;4920283;29;20669;-80
2022/05/08 09:50:08;;;;;;;7.07;6.10;;;;;;;;;;4920428;29;20236;-80
2022/05/08 09:52:35;;;;;;;6.65;5.90;;;;;;;;;;4920467;29;20186;-80
2022/05/08 09:55:04;;;;;;;6.93;6.22;;;;;;;;;;4921122;29;20182;-79
2022/05/08 09:57:31;;;;;;;6.80;5.85;;;;;;;;;;4933685;29;20182;-79
2022/05/08 09:59:58;;;;;;;6.53;5.90;;;;;;;;;;4886346;29;20198;-79
2022/05/08 10:02:24;;;;;;;6.30;5.70;;;;;;;;;;4889329;29;20190;-79
2022/05/08 10:04:50;;;;;;;6.85;5.13;;;;;;;;;;4888922;29;20694;-78
2022/05/08 10:07:16;;;;;;;7.13;5.60;;;;;;;;;;4903380;29;20221;-79
2022/05/08 10:15:17;;;;;;;6.28;5.68;;;;;;;;;;4918858;29;20165;-80
2022/05/08 10:17:43;;;;;;;5.80;5.20;;;;;;;;;;4901598;29;20721;-80
2022/05/08 10:20:09;;;;;;;7.75;6.28;;;;;;;;;;4901529;29;20175;-80
2022/05/08 10:22:48;;;;;;;5.80;5.07;;;;;;;;;;4885978;29;20175;-80
2022/05/08 10:25:15;;;;;;;7.20;6.03;;;;;;;;;;4901207;29;20202;-80
2022/05/08 10:27:43;;;;;;;6.15;5.43;;;;;;;;;;4885904;29;20175;-80
2022/05/08 10:30:09;;;;;;;6.88;5.30;;;;;;;;;;4866638;29;1058237;-80
2022/05/08 10:32:35;;;;;;;7.07;5.50;;;;;;;;;;4901963;29;20222;-80
2022/05/08 10:35:20;;;;;;;7.85;5.15;;;;;;;;;;4902176;29;20550;-80
2022/05/08 10:37:46;;;;;;;6.75;5.13;;;;;;;;;;4909213;29;20229;-80
2022/05/08 10:40:25;;;;;;;7.68;6.03;;;;;;;;;;4918771;29;20238;-80
2022/05/08 10:43:19;;;;;;;5.68;5.18;;;;;;;;;;4917498;29;20202;-80
2022/05/08 10:45:46;;;;;;;6.50;5.57;;;;;;;;;;4917872;29;20281;-80
2022/05/08 10:48:19;;;;;;;7.32;5.53;;;;;;;;;;4907526;29;20210;-80
2022/05/08 10:50:49;;;;;;;6.60;4.95;;;;;;;;;;4901684;29;20511;-81
2022/05/08 10:53:22;;;;;;;9.50;5.30;;;;;;;;;;4885991;29;20245;-80
2022/05/08 10:55:49;;;;;;;5.55;5.05;;;;;;;;;;4886398;29;20273;-80
2022/05/08 10:58:15;;;;;;;7.07;4.75;;;;;;;;;;4886104;29;20203;-80
2022/05/08 11:00:40;;;;;;;5.55;5.05;;;;;;;;;;4918495;29;20278;-80
2022/05/08 11:03:07;;;;;;;5.53;4.78;;;;;;;;;;4885693;29;20186;-81
2022/05/08 11:05:34;;;;;;;5.93;5.13;;;;;;;;;;4901186;29;20273;-80
2022/05/08 11:08:01;;;;;;;6.18;5.03;;;;;;;;;;4901436;29;20546;-81
2022/05/08 11:10:32;;;;;;;7.22;5.57;;;;;;;;;;4886303;29;20183;-80
2022/05/08 11:13:11;;;;;;;6.65;4.75;;;;;;;;;;4886467;29;20178;-81
2022/05/08 11:15:37;;;;;;;6.30;5.20;;;;;;;;;;4902414;29;20214;-80
2022/05/08 11:18:04;;;;;;;5.70;5.15;;;;;;;;;;4902011;29;20190;-80
2022/05/08 11:20:31;;;;;;;5.65;4.70;;;;;;;;;;4888211;29;20187;-80
2022/05/08 11:22:58;;;;;;;6.45;5.47;;;;;;;;;;4902774;29;20186;-79
2022/05/08 11:25:24;;;;;;;8.05;5.38;;;;;;;;;;4887973;29;20206;-80
2022/05/08 11:27:53;;;;;;;6.93;5.30;;;;;;;;;;4887188;29;20209;-81
2022/05/08 11:30:33;;;;;;;6.47;4.80;;;;;;;;;;4902881;29;20214;-80
2022/05/08 11:36:04;;;;;;;5.97;5.38;;;;;;;;;;4920838;29;20169;-80
2022/05/08 11:38:39;;;;;;;7.32;6.30;;;;;;;;;;4903037;29;20582;-81
2022/05/08 11:41:07;;;;;;;6.47;5.88;;;;;;;;;;4903237;29;20259;-81
2022/05/08 11:43:37;;;;;;;6.15;5.15;;;;;;;;;;4902841;29;20193;-81
2022/05/08 11:46:03;;;;;;;6.93;5.28;;;;;;;;;;4903151;29;20194;-81
2022/05/08 11:48:37;;;;;;;6.07;4.82;;;;;;;;;;4887704;29;20202;-81
2022/05/08 11:51:04;;;;;;;5.10;4.60;;;;;;;;;;4902634;29;20633;-80
2022/05/08 11:53:38;;;;;;;6.13;5.07;;;;;;;;;;4887601;29;20596;-79
2022/05/08 11:56:20;;;;;;;6.75;5.05;;;;;;;;;;4902683;29;20170;-79
2022/05/08 11:58:47;;;;;;;5.28;4.75;;;;;;;;;;4902817;29;20202;-80
2022/05/08 12:01:23;;;;;;;7.20;4.95;;;;;;;;;;4887223;29;20186;-80
2022/05/08 12:03:49;;;;;;;5.70;5.13;;;;;;;;;;4902336;29;20272;-80
2022/05/08 12:06:15;;;;;;;5.63;4.75;;;;;;;;;;4902661;29;20261;-80
2022/05/08 12:08:42;;;;;;;6.57;4.80;;;;;;;;;;4918837;29;20196;-80
2022/05/08 12:11:08;;;;;;;4.60;4.20;;;;;;;;;;4902404;29;20179;-79
2022/05/08 12:13:54;;;;;;;6.10;4.47;;;;;;;;;;4902090;29;20582;-79
2022/05/08 12:16:20;;;;;;;6.28;4.47;;;;;;;;;;4901796;29;20210;-80
2022/05/08 12:19:05;;;;;;;5.45;4.95;;;;;;;;;;4887022;29;20618;-80
2022/05/08 12:21:32;;;;;;;6.13;5.07;;;;;;;;;;4902358;29;20182;-79
2022/05/08 12:23:59;;;;;;;5.50;5.00;;;;;;;;;;4886986;29;20625;-80
2022/05/08 12:26:25;;;;;;;5.22;4.28;;;;;;;;;;4901904;29;20210;-80
2022/05/08 12:28:51;;;;;;;4.90;4.40;;;;;;;;;;4902155;29;20657;-80
2022/05/08 12:31:17;;;;;;;5.70;5.15;;;;;;;;;;4887094;29;20189;-80
2022/05/08 12:33:44;;;;;;;6.40;5.05;;;;;;;;;;4902665;29;20230;-80
2022/05/08 12:36:10;;;;;;;5.65;5.15;;;;;;;;;;4890405;29;20193;-79
2022/05/08 12:38:36;;;;;;;6.20;5.03;;;;;;;;;;4905043;29;20574;-80
2022/05/08 12:41:02;;;;;;;5.80;4.70;;;;;;;;;;4889231;29;20183;-80
2022/05/08 12:43:28;;;;;;;4.03;2.70;;;;;;;;;;4889281;29;20240;-80
2022/05/08 12:45:54;;;;;;;3.38;2.50;;;;;;;;;;4889252;29;20222;-80
2022/05/08 12:48:21;;;;;;;3.70;2.70;;;;;;;;;;4889379;29;20202;-79
2022/05/08 12:50:48;;;;;;;2.92;2.67;;;;;;;;;;4889857;29;20182;-80
2022/05/08 12:53:14;;;;;;;3.05;2.75;;;;;;;;;;4922049;29;20167;-80
2022/05/08 12:55:40;;;;;;;3.40;2.70;;;;;;;;;;4905869;29;20583;-80
2022/05/08 13:00:51;;;;;;;2.75;2.55;;;;;;;;;;4923095;29;20710;-80
2022/05/08 13:03:17;;;;;;;3.10;2.50;;;;;;;;;;4889917;29;20214;-80
2022/05/08 13:05:43;;;;;;;2.35;2.15;;;;;;;;;;4904807;29;20649;-83
2022/05/08 13:08:09;;;;;;;2.45;1.98;;;;;;;;;;4889527;29;20202;-80
2022/05/08 13:10:35;;;;;;;3.42;2.05;;;;;;;;;;4889452;29;20654;-80
2022/05/08 13:13:02;;;;;;;2.28;2.08;;;;;;;;;;4905747;29;20175;-80
2022/05/08 13:15:28;;;;;;;3.38;2.22;;;;;;;;;;4890168;29;20179;-79
2022/05/08 13:17:54;;;;;;;2.10;1.92;;;;;;;;;;4906264;29;20174;-79
2022/05/08 13:20:20;;;;;;;3.50;2.15;;;;;;;;;;4905801;29;20190;-79
2022/05/08 13:22:46;;;;;;;2.05;1.92;;;;;;;;;;4906180;29;20201;-79
2022/05/08 13:25:12;;;;;;;1.80;1.70;;;;;;;;;;4906027;29;20179;-78
2022/05/08 13:27:38;;;;;;;2.22;1.50;;;;;;;;;;4906064;29;20248;-79
2022/05/08 13:30:05;;;;;;;1.80;1.55;;;;;;;;;;4889780;29;20556;-79
2022/05/08 13:32:31;;;;;;;2.05;1.85;;;;;;;;;;4905421;29;20273;-78
2022/05/08 13:34:57;;;;;;;1.93;1.70;;;;;;;;;;4890630;29;20674;-79
2022/05/08 13:37:23;;;;;;;2.20;2.00;;;;;;;;;;4905997;29;20193;-78
2022/05/08 13:39:49;;;;;;;4.27;1.63;;;;;;;;;;4890830;29;20202;-79
2022/05/08 13:42:18;;;;;;;1.70;1.60;;;;;;;;;;4889864;29;20241;-78
2022/05/08 13:44:44;;;;;;;1.80;1.70;;;;;;;;;;4890857;29;20741;-79
2022/05/08 13:47:10;;;;;;;2.63;1.90;;;;;;;;;;4890058;29;20229;-79
2022/05/08 13:49:37;;;;;;;1.88;1.77;;;;;;;;;;4906198;29;20213;-79
2022/05/08 13:52:03;;;;;;;2.00;1.80;;;;;;;;;;4890645;29;20175;-79
2022/05/08 13:54:36;;;;;;;1.60;1.50;;;;;;;;;;4890307;29;20185;-79
2022/05/08 13:57:03;;;;;;;1.90;1.70;;;;;;;;;;4906192;29;20175;-79
2022/05/08 13:59:29;;;;;;;3.95;1.48;;;;;;;;;;4906081;29;20227;-79
2022/05/08 14:01:55;;;;;;;1.48;1.38;;;;;;;;;;4906107;29;20178;-78
2022/05/08 14:04:21;;;;;;;2.33;1.70;;;;;;;;;;4890351;29;20193;-79
2022/05/08 14:06:49;;;;;;;2.47;1.77;;;;;;;;;;4905573;29;20210;-78
2022/05/08 14:09:16;;;;;;;2.38;1.90;;;;;;;;;;4905905;29;20249;-79
2022/05/08 14:11:42;;;;;;;2.03;1.83;;;;;;;;;;4905733;29;20249;-77
2022/05/08 14:14:08;;;;;;;2.50;2.30;;;;;;;;;;4890301;29;20190;-79
2022/05/08 14:16:34;;;;;;;3.10;2.58;;;;;;;;;;4906029;29;20181;-79
2022/05/08 14:19:00;;;;;;;4.68;3.10;;;;;;;;;;4889947;29;20202;-79
2022/05/08 14:21:25;;;;;;;3.20;2.90;;;;;;;;;;4905243;29;20288;-78
2022/05/08 14:23:51;;;;;;;3.47;2.70;;;;;;;;;;4890710;29;20186;-79
2022/05/08 14:26:18;;;;;;;2.90;2.60;;;;;;;;;;4890114;29;20214;-79
2022/05/08 14:28:44;;;;;;;2.63;2.35;;;;;;;;;;4905759;29;20220;-78
2022/05/08 14:36:40;;;;;;;4.00;3.35;;;;;;;;;;4922608;29;20262;-79
2022/05/08 14:39:06;;;;;;;4.25;3.00;;;;;;;;;;4905363;29;20207;-79
2022/05/08 14:41:32;;;;;;;4.18;3.20;;;;;;;;;;4922522;29;20183;-79
2022/05/08 14:43:58;;;;;;;4.53;3.22;;;;;;;;;;4905403;29;20195;-79
2022/05/08 14:46:24;;;;;;;4.72;3.40;;;;;;;;;;4889833;29;20202;-79
2022/05/08 14:48:50;;;;;;;3.10;2.80;;;;;;;;;;4905462;29;20209;-79
2022/05/08 14:51:16;;;;;;;3.58;3.28;;;;;;;;;;4889914;29;20220;-79
2022/05/08 14:53:43;;;;;;;3.78;3.30;;;;;;;;;;4889656;29;20182;-79
2022/05/08 14:56:12;;;;;;;4.40;4.00;;;;;;;;;;4889870;29;20210;-79
2022/05/08 14:58:38;;;;;;;5.30;3.63;;;;;;;;;;4905486;29;20198;-80
2022/05/08 15:01:04;;;;;;;4.88;3.80;;;;;;;;;;4902466;29;20178;-78
2022/05/08 15:03:31;;;;;;;4.30;3.50;;;;;;;;;;4886565;29;20189;-78
2022/05/08 15:05:57;;;;;;;3.88;3.10;;;;;;;;;;4887148;29;20237;-78
2022/05/08 15:08:23;;;;;;;4.10;3.72;;;;;;;;;;4902251;29;20198;-78
2022/05/08 15:10:49;;;;;;;4.22;3.83;;;;;;;;;;4902452;29;20238;-77
2022/05/08 15:13:15;;;;;;;4.95;3.63;;;;;;;;;;4901119;29;20174;-78